Time;durP1;ratioP1;P1;durP2;ratioP2;P2;SDS_P1;SDS_P2;PMS_P1;PMS_P2;Temp;Humidity;BMP_temperature;BMP_pressure;BME280_temperature;BME280_humidity;BME280_pressure;Samples;Min_cycle;Max_cycle;Signal;HPM_P1;HPM_P2
2021/12/10 00:02:20;;;;;;;13.80;1.85;;;;;;;7.81;82.16;97943.63;6190878;23;20023;-77
2021/12/10 00:04:46;;;;;;;9.02;1.95;;;;;;;7.76;81.65;97963.59;6191804;23;20083;-75
2021/12/10 00:07:20;;;;;;;5.38;0.90;;;;;;;7.79;81.86;97962.19;6192015;23;20138;-75
2021/12/10 00:10:04;;;;;;;12.07;2.15;;;;;;;7.82;81.58;97967.00;6191759;23;20008;-75
2021/12/10 00:16:53;;;;;;;;;;;;;;;;;;;;;
2021/12/10 00:20:10;;;;;;;5.43;1.70;;;;;;;7.88;80.52;97964.97;6100700;23;20034;-74
2021/12/10 00:26:48;;;;;;;4.38;1.10;;;;;;;7.92;80.27;97965.97;5930306;24;20013;-74
2021/12/10 00:42:43;;;;;;;12.30;1.67;;;;;;;7.64;80.66;97966.06;5852976;24;20103;-76
2021/12/10 00:55:55;;;;;;;6.43;1.35;;;;;;;7.33;79.46;97972.19;5859030;24;20040;-78
2021/12/10 00:58:52;;;;;;;11.90;1.33;;;;;;;7.47;79.65;97997.41;5903045;24;20013;-74
2021/12/10 01:09:10;;;;;;;;;;;;;;;;;;;;;
2021/12/10 01:15:38;;;;;;;8.30;1.00;;;;;;;7.27;79.47;98025.03;6069061;23;20014;-72
2021/12/10 01:23:47;;;;;;;3.85;1.02;;;;;;;7.27;79.26;98036.72;6158961;23;20115;-73
2021/12/10 01:24:29;;;;;;;6.22;1.80;;;;;;;7.31;78.78;98039.63;6185262;23;20033;-71
2021/12/10 01:26:58;;;;;;;9.00;0.88;;;;;;;7.29;78.48;98045.38;6185835;23;20029;-71
2021/12/10 01:29:33;;;;;;;9.55;1.27;;;;;;;7.29;78.24;98053.53;6186306;23;20005;-71
2021/12/10 01:32:11;;;;;;;6.03;0.77;;;;;;;7.33;78.19;98049.09;6188054;23;20064;-70
2021/12/10 01:34:38;;;;;;;1.70;0.55;;;;;;;7.28;78.72;98046.47;6182949;23;20004;-73
2021/12/10 01:37:06;;;;;;;5.95;1.13;;;;;;;7.26;77.42;98069.66;6189126;23;20009;-73
2021/12/10 01:39:35;;;;;;;1.52;0.57;;;;;;;7.18;78.80;98049.38;6185424;23;20009;-73
2021/12/10 01:42:14;;;;;;;6.85;1.17;;;;;;;7.16;77.94;98060.56;6190882;23;20086;-73
2021/12/10 01:44:45;;;;;;;3.80;1.02;;;;;;;7.17;77.88;98066.81;6187771;23;20024;-73
2021/12/10 01:47:15;;;;;;;3.13;0.60;;;;;;;7.11;78.21;98057.97;6199623;23;20007;-74
2021/12/10 01:49:43;;;;;;;5.25;0.70;;;;;;;7.16;78.27;98082.31;6201468;23;20045;-74
2021/12/10 01:52:10;;;;;;;4.93;1.15;;;;;;;7.03;77.79;98066.00;6200613;23;20029;-73
2021/12/10 01:54:41;;;;;;;3.80;0.70;;;;;;;7.05;77.74;98070.00;6190675;23;20060;-74
2021/12/10 01:57:10;;;;;;;4.20;0.52;;;;;;;7.18;77.29;98073.06;6188223;23;20095;-72
2021/12/10 01:59:38;;;;;;;4.30;0.47;;;;;;;7.21;77.49;98067.00;6188309;23;20013;-75
2021/12/10 02:02:10;;;;;;;8.48;1.00;;;;;;;7.10;76.19;98080.81;6185307;23;20036;-74
2021/12/10 02:04:39;;;;;;;3.30;0.52;;;;;;;7.10;75.76;98097.09;6185021;23;20013;-73
2021/12/10 02:07:08;;;;;;;2.05;0.65;;;;;;;7.12;75.71;98097.59;6187643;23;20036;-73
2021/12/10 02:09:34;;;;;;;2.65;0.77;;;;;;;7.02;75.39;98086.13;6186878;23;20005;-72
2021/12/10 02:12:03;;;;;;;4.05;1.05;;;;;;;6.96;75.25;98099.00;6187731;23;20043;-73
2021/12/10 02:14:29;;;;;;;9.57;0.60;;;;;;;6.98;74.41;98110.38;6186474;23;20420;-70
2021/12/10 02:16:58;;;;;;;1.40;0.47;;;;;;;6.95;74.03;98102.81;6188136;23;20013;-74
2021/12/10 02:19:23;;;;;;;3.00;0.55;;;;;;;6.90;73.71;98109.13;6161933;23;20432;-73
2021/12/10 02:21:56;;;;;;;6.10;1.23;;;;;;;7.03;74.07;98142.88;6189177;23;20071;-73
2021/12/10 02:24:22;;;;;;;3.35;0.60;;;;;;;6.95;73.27;98128.09;6159522;23;20005;-74
2021/12/10 02:26:51;;;;;;;3.25;0.55;;;;;;;6.95;73.81;98129.97;6185146;23;20005;-73
2021/12/10 02:29:28;;;;;;;2.53;0.70;;;;;;;6.94;73.59;98139.25;6184969;23;20021;-73
2021/12/10 02:32:18;;;;;;;2.13;0.70;;;;;;;6.80;73.05;98134.59;6189497;23;20092;-74
2021/12/10 02:45:37;;;;;;;0.98;0.60;;;;;;;6.61;74.78;98141.94;6112640;23;20025;-77
2021/12/10 02:48:25;;;;;;;;;;;;;;;;;;;;;
2021/12/10 02:58:06;;;;;;;;;;;;;;;;;;;;;
2021/12/10 03:15:08;;;;;;;4.13;1.08;;;;;;;6.26;73.88;98214.66;6015999;23;20116;-75
2021/12/10 03:18:28;;;;;;;2.15;0.65;;;;;;;6.28;74.44;98223.34;6014166;23;20015;-76
2021/12/10 03:41:40;;;;;;;8.93;1.45;;;;;;;5.88;74.23;98266.91;6130630;23;20038;-76
2021/12/10 03:48:00;;;;;;;;;;;;;;;;;;;;;
2021/12/10 03:53:58;;;;;;;11.55;1.02;;;;;;;5.64;73.68;98245.19;6043342;23;20018;-75
2021/12/10 03:56:33;;;;;;;4.20;0.73;;;;;;;5.82;72.93;98270.75;6061501;23;20006;-76
2021/12/10 03:59:36;;;;;;;;;;;;;;;;;;;;;
2021/12/10 04:10:01;;;;;;;5.38;1.13;;;;;;;5.64;72.71;98290.50;6071758;23;20415;-76
2021/12/10 04:31:22;;;;;;;1.65;0.47;;;;;;;5.29;72.61;98309.47;6008303;23;20116;-74
2021/12/10 04:34:26;;;;;;;;;;;;;;;;;;;;;
2021/12/10 04:47:53;;;;;;;4.15;1.23;;;;;;;5.00;73.00;98323.75;6015302;23;20451;-78
2021/12/10 04:53:43;;;;;;;3.38;0.47;;;;;;;4.75;73.72;98302.28;6017178;23;20023;-79
2021/12/10 05:02:21;;;;;;;2.83;0.80;;;;;;;4.67;72.71;98312.59;6104162;23;20010;-78
2021/12/10 05:34:32;;;;;;;;;;;;;;;;;;;;;
2021/12/10 05:48:46;;;;;;;3.65;1.20;;;;;;;4.46;75.14;98443.69;6074751;23;20066;-83
2021/12/10 05:58:08;;;;;;;;;;;;;;;;;;;;;
2021/12/10 06:01:09;;;;;;;;;;;;;;;;;;;;;
2021/12/10 06:03:37;;;;;;;9.35;0.57;;;;;;;4.19;75.84;98450.22;6019917;23;20012;-82
2021/12/10 06:13:11;;;;;;;7.63;0.70;;;;;;;4.05;76.57;98459.97;6079123;23;20022;-83
2021/12/10 06:25:59;;;;;;;2.15;0.77;;;;;;;4.08;76.93;98476.47;5975575;23;20133;-82
2021/12/10 06:31:49;;;;;;;2.50;0.60;;;;;;;4.16;76.05;98511.09;6026361;23;20136;-82
2021/12/10 06:34:17;;;;;;;4.63;0.95;;;;;;;4.02;76.06;98500.00;6039926;23;20007;-81
2021/12/10 06:41:04;;;;;;;;;;;;;;;;;;;;;
2021/12/10 06:48:00;;;;;;;;;;;;;;;;;;;;;
2021/12/10 06:52:01;;;;;;;;;;;;;;;;;;;;;
2021/12/10 07:02:22;;;;;;;;;;;;;;;;;;;;;
2021/12/10 07:05:16;;;;;;;;;;;;;;;;;;;;;
2021/12/10 07:18:22;;;;;;;6.95;1.00;;;;;;;3.60;75.78;98563.19;5817978;24;20020;-77
2021/12/10 07:21:20;;;;;;;3.28;0.60;;;;;;;3.81;76.08;98590.28;5875760;24;20087;-75
2021/12/10 07:23:49;;;;;;;2.97;0.60;;;;;;;3.76;75.76;98582.19;5873693;24;20044;-73
2021/12/10 07:27:11;;;;;;;4.68;0.90;;;;;;;3.77;75.86;98600.03;5849836;24;20018;-76
2021/12/10 07:29:38;;;;;;;2.45;1.20;;;;;;;3.60;75.31;98579.41;6000191;23;20279;-76
2021/12/10 07:32:07;;;;;;;11.35;1.45;;;;;;;3.72;75.87;98586.47;5990260;23;20019;-75
2021/12/10 07:34:37;;;;;;;2.95;0.90;;;;;;;3.74;75.55;98595.13;6012370;23;20010;-76
2021/12/10 07:37:03;;;;;;;7.40;0.80;;;;;;;3.77;75.59;98608.13;6098388;23;20564;-76
2021/12/10 07:39:30;;;;;;;2.13;1.02;;;;;;;3.76;75.55;98620.03;6167910;23;20009;-76
2021/12/10 07:41:56;;;;;;;8.05;0.88;;;;;;;3.72;75.44;98613.50;6191517;23;20027;-74
2021/12/10 07:44:22;;;;;;;5.40;0.80;;;;;;;3.74;75.05;98622.16;6189313;23;20005;-76
2021/12/10 07:47:40;;;;;;;5.30;0.80;;;;;;;3.83;75.20;98639.53;6189810;23;20005;-76
2021/12/10 07:57:51;;;;;;;;;;;;;;;;;;;;;
2021/12/10 08:04:07;;;;;;;;;;;;;;;;;;;;;
2021/12/10 08:06:42;;;;;;;3.10;0.63;;;;;;;3.84;74.51;98682.50;6071946;23;20026;-77
2021/12/10 08:09:10;;;;;;;2.17;0.30;;;;;;;3.69;74.60;98641.88;6128426;23;20060;-78
2021/12/10 08:21:24;;;;;;;0.65;0.35;;;;;;;3.81;73.20;98663.28;6134149;23;20038;-77
2021/12/10 08:23:55;;;;;;;2.95;0.38;;;;;;;3.81;73.69;98682.22;6167352;23;20032;-77
2021/12/10 08:26:27;;;;;;;3.75;0.45;;;;;;;3.94;73.40;98680.91;6194383;23;20028;-76
2021/12/10 08:33:22;;;;;;;;;;;;;;;;;;;;;
2021/12/10 08:36:38;;;;;;;;;;;;;;;;;;;;;
2021/12/10 08:39:15;;;;;;;8.55;1.05;;;;;;;4.21;72.66;98748.38;5893018;23;20126;-77
2021/12/10 08:41:40;;;;;;;4.88;0.52;;;;;;;4.17;72.69;98733.75;6010531;23;20019;-75
2021/12/10 08:44:11;;;;;;;0.95;0.28;;;;;;;4.23;72.65;98731.88;5991944;23;20071;-76
2021/12/10 08:46:39;;;;;;;2.10;0.50;;;;;;;4.31;72.22;98748.41;6141444;23;20088;-75
2021/12/10 08:49:08;;;;;;;2.50;0.45;;;;;;;4.39;72.33;98751.69;6165201;23;20012;-76
2021/12/10 08:51:44;;;;;;;2.33;0.22;;;;;;;4.42;71.65;98746.53;6192282;23;20005;-75
2021/12/10 08:54:13;;;;;;;2.25;0.80;;;;;;;4.37;71.42;98749.25;6165579;23;20093;-76
2021/12/10 08:56:46;;;;;;;0.45;0.13;;;;;;;4.41;71.37;98746.81;6165709;23;20009;-76
2021/12/10 08:59:16;;;;;;;1.60;0.30;;;;;;;4.51;71.63;98744.13;6191495;23;20066;-76
2021/12/10 09:01:46;;;;;;;1.50;0.40;;;;;;;4.58;71.05;98760.94;6164695;23;20016;-77
2021/12/10 09:04:12;;;;;;;4.15;0.35;;;;;;;4.61;71.06;98776.63;6167857;23;20016;-77
2021/12/10 09:06:47;;;;;;;5.70;0.20;;;;;;;4.70;71.40;98785.06;6189225;23;20009;-76
2021/12/10 09:09:32;;;;;;;;;;;;;;;;;;;;;
2021/12/10 09:12:07;;;;;;;2.20;0.20;;;;;;;4.60;70.56;98769.63;6198905;23;20000;-77
2021/12/10 09:14:41;;;;;;;0.60;0.30;;;;;;;4.81;70.92;98788.63;6198149;23;20024;-77
2021/12/10 09:17:09;;;;;;;1.00;0.30;;;;;;;4.82;70.42;98793.75;6204997;23;20004;-76
2021/12/10 09:19:36;;;;;;;3.92;0.50;;;;;;;4.97;70.24;98817.34;6201913;23;20012;-78
2021/12/10 09:22:05;;;;;;;0.70;0.40;;;;;;;4.89;70.12;98820.56;6204931;23;20013;-77
2021/12/10 09:24:31;;;;;;;0.68;0.30;;;;;;;5.04;70.29;98836.06;6192302;23;20005;-78
2021/12/10 09:26:58;;;;;;;2.90;0.50;;;;;;;5.03;70.71;98824.41;6189818;23;20020;-76
2021/12/10 09:29:27;;;;;;;1.08;0.20;;;;;;;5.11;70.44;98833.09;6190225;23;20416;-76
2021/12/10 09:31:59;;;;;;;9.20;0.45;;;;;;;5.31;70.32;98835.81;6187988;23;20004;-76
2021/12/10 09:34:25;;;;;;;3.85;0.43;;;;;;;5.93;70.36;98849.34;6191705;23;20005;-74
2021/12/10 09:36:53;;;;;;;0.50;0.40;;;;;;;6.84;67.04;98851.25;6190143;23;20011;-75
2021/12/10 09:39:21;;;;;;;1.90;0.45;;;;;;;7.69;63.72;98853.66;6188423;23;20401;-78
2021/12/10 09:41:57;;;;;;;;;;;;;;;;;;;;;
2021/12/10 09:44:23;;;;;;;2.80;0.50;;;;;;;8.81;58.69;98869.09;6191454;23;20043;-74
2021/12/10 09:46:51;;;;;;;4.80;0.52;;;;;;;9.21;57.22;98887.94;6192635;23;20417;-75
2021/12/10 09:49:17;;;;;;;1.15;0.45;;;;;;;9.51;55.28;98878.50;6190700;23;20044;-75
2021/12/10 09:51:49;;;;;;;2.15;0.40;;;;;;;9.78;55.63;98869.59;6189796;23;20001;-74
2021/12/10 09:54:32;;;;;;;1.33;0.30;;;;;;;10.07;53.85;98886.84;6191087;23;19996;-76
2021/12/10 09:57:06;;;;;;;0.68;0.32;;;;;;;10.60;53.47;98878.25;6191857;23;20001;-75
2021/12/10 09:59:38;;;;;;;3.50;0.77;;;;;;;10.68;50.64;98890.38;6190661;23;20001;-74
2021/12/10 10:02:06;;;;;;;2.22;0.20;;;;;;;10.92;51.07;98912.06;6191602;23;20223;-74
2021/12/10 10:04:40;;;;;;;3.03;0.45;;;;;;;11.13;49.92;98919.84;6191247;23;19997;-76
2021/12/10 10:07:12;;;;;;;0.80;0.38;;;;;;;11.37;49.35;98918.78;6193726;23;20016;-75
2021/12/10 10:09:51;;;;;;;2.78;0.40;;;;;;;11.73;49.10;98901.53;6167998;23;20021;-77
2021/12/10 10:12:31;;;;;;;0.60;0.30;;;;;;;12.39;49.33;98924.50;6194744;23;20040;-75
2021/12/10 10:15:01;;;;;;;0.38;0.20;;;;;;;12.85;46.49;98929.88;6193665;23;20001;-76
2021/12/10 10:17:31;;;;;;;2.15;0.65;;;;;;;13.06;46.06;98941.06;6172941;23;20076;-76
2021/12/10 10:19:56;;;;;;;3.03;0.45;;;;;;;13.19;44.84;98947.56;6191648;23;20005;-75
2021/12/10 10:22:27;;;;;;;1.88;0.35;;;;;;;13.32;44.43;98943.88;6193580;23;20060;-75
2021/12/10 10:25:03;;;;;;;2.22;0.40;;;;;;;13.22;43.75;98941.44;6190181;23;20067;-75
2021/12/10 10:27:35;;;;;;;0.68;0.40;;;;;;;13.25;43.40;98947.09;6195049;23;20332;-74
2021/12/10 10:30:09;;;;;;;0.90;0.35;;;;;;;13.36;43.00;98961.38;6189116;23;19997;-73
2021/12/10 10:32:35;;;;;;;2.85;0.30;;;;;;;13.48;43.41;98962.66;6191531;23;20015;-73
2021/12/10 10:35:10;;;;;;;0.82;0.35;;;;;;;13.60;42.31;98965.59;6197514;23;20036;-75
2021/12/10 10:37:37;;;;;;;3.13;0.40;;;;;;;13.53;42.35;98954.28;6197539;23;20321;-73
2021/12/10 10:40:07;;;;;;;3.15;0.57;;;;;;;13.59;42.88;98952.97;6200683;23;20028;-73
2021/12/10 10:42:33;;;;;;;0.95;0.40;;;;;;;13.83;42.07;98951.69;6197695;23;20008;-74
2021/12/10 10:45:07;;;;;;;7.93;0.60;;;;;;;13.88;41.71;98949.59;6173836;23;20001;-74
2021/12/10 10:47:32;;;;;;;1.05;0.32;;;;;;;14.01;41.92;98964.28;6198161;23;20071;-74
2021/12/10 10:50:11;;;;;;;;;;;;;;;;;;;;;
2021/12/10 10:52:39;;;;;;;1.83;0.60;;;;;;;14.48;40.54;98983.66;6193882;23;20032;-74
2021/12/10 10:55:16;;;;;;;0.35;0.30;;;;;;;14.64;40.03;98992.19;6192375;23;20005;-75
2021/12/10 10:58:05;;;;;;;0.82;0.30;;;;;;;15.00;40.58;98992.88;6164493;23;20076;-75
2021/12/10 11:00:46;;;;;;;0.77;0.32;;;;;;;15.18;39.80;98997.16;6192004;23;20013;-73
2021/12/10 11:03:15;;;;;;;0.50;0.20;;;;;;;15.52;39.43;99000.88;6194287;23;20004;-74
2021/12/10 11:06:08;;;;;;;0.30;0.20;;;;;;;15.82;38.37;99014.63;6195749;23;20000;-74
2021/12/10 11:08:37;;;;;;;1.08;0.47;;;;;;;15.83;38.51;99005.22;6194221;23;20020;-77
2021/12/10 11:11:35;;;;;;;2.55;0.60;;;;;;;15.92;38.00;99026.41;6194234;23;20075;-75
2021/12/10 11:14:11;;;;;;;1.75;0.40;;;;;;;15.83;37.54;99002.47;6187231;23;20019;-75
2021/12/10 11:16:39;;;;;;;0.68;0.30;;;;;;;15.13;38.74;99013.88;6194097;23;19997;-74
2021/12/10 11:19:10;;;;;;;0.75;0.60;;;;;;;15.29;39.12;99018.84;6191963;23;20001;-79
2021/12/10 11:21:52;;;;;;;3.17;0.57;;;;;;;15.56;38.57;99013.97;6191058;23;20005;-75
2021/12/10 11:24:25;;;;;;;1.27;0.50;;;;;;;15.78;37.35;99016.44;6193253;23;20376;-74
2021/12/10 11:27:02;;;;;;;0.77;0.30;;;;;;;15.84;37.12;99014.28;6190110;23;20005;-78
2021/12/10 11:29:51;;;;;;;2.80;0.57;;;;;;;16.37;36.41;99025.72;6164555;23;20000;-75
2021/12/10 11:32:33;;;;;;;2.10;0.40;;;;;;;16.26;36.52;99019.78;6195233;23;20146;-76
2021/12/10 11:35:12;;;;;;;4.30;0.88;;;;;;;16.25;35.70;99033.91;6188732;23;20009;-75
2021/12/10 11:37:44;;;;;;;1.10;1.00;;;;;;;16.40;36.87;99027.78;6190881;23;20051;-73
2021/12/10 11:40:34;;;;;;;4.30;0.40;;;;;;;17.03;34.89;99035.09;6194008;23;20017;-74
2021/12/10 11:49:00;;;;;;;1.98;0.55;;;;;;;16.77;34.15;99047.22;6101227;23;20092;-75
2021/12/10 11:51:40;;;;;;;2.35;0.77;;;;;;;16.38;35.74;99038.34;6161352;23;20009;-76
2021/12/10 11:54:20;;;;;;;3.90;0.63;;;;;;;16.25;34.93;99045.75;6192610;23;20000;-75
2021/12/10 11:57:03;;;;;;;;;;;;;;;;;;;;;
2021/12/10 11:59:36;;;;;;;0.98;0.55;;;;;;;16.66;35.14;99032.22;6190608;23;20044;-75
2021/12/10 12:02:14;;;;;;;1.15;0.32;;;;;;;17.47;36.06;99051.94;6191934;23;20060;-75
2021/12/10 12:04:46;;;;;;;3.88;0.43;;;;;;;17.82;32.60;99043.16;6195345;23;20001;-76
2021/12/10 12:07:40;;;;;;;;;;;;;;;;;;;;;
2021/12/10 12:10:14;;;;;;;0.68;0.40;;;;;;;18.07;32.62;99054.97;6166713;23;20340;-75
2021/12/10 12:12:45;;;;;;;3.00;0.95;;;;;;;17.99;32.71;99060.66;6163884;23;20009;-76
2021/12/10 12:15:16;;;;;;;6.18;0.57;;;;;;;18.17;32.64;99058.44;6166091;23;20005;-79
2021/12/10 12:17:48;;;;;;;1.55;0.60;;;;;;;18.47;31.97;99067.19;6133244;23;20424;-76
2021/12/10 12:20:40;;;;;;;0.75;0.50;;;;;;;17.81;32.60;99060.88;6167155;23;20025;-75
2021/12/10 12:26:20;;;;;;;3.90;0.45;;;;;;;17.17;34.33;99068.72;6171217;23;20040;-74
2021/12/10 12:28:58;;;;;;;0.57;0.50;;;;;;;17.62;33.74;99078.88;6172582;23;20008;-76
2021/12/10 12:31:31;;;;;;;0.50;0.30;;;;;;;18.44;33.82;99067.88;6148449;23;20451;-76
2021/12/10 12:34:13;;;;;;;4.20;0.63;;;;;;;19.22;32.37;99087.81;6163485;23;20005;-79
2021/12/10 12:37:03;;;;;;;3.13;0.45;;;;;;;19.05;31.19;99075.09;6140140;23;20021;-76
2021/12/10 12:39:33;;;;;;;1.25;0.30;;;;;;;19.25;30.74;99076.03;6162160;23;20005;-75
2021/12/10 12:42:05;;;;;;;0.82;0.65;;;;;;;19.06;31.62;99081.47;6165576;23;20017;-76
2021/12/10 12:44:39;;;;;;;1.80;0.30;;;;;;;19.09;32.01;99078.00;6160703;23;20278;-74
2021/12/10 12:47:29;;;;;;;2.33;0.68;;;;;;;18.97;30.81;99079.66;6166656;23;20010;-74
2021/12/10 12:50:07;;;;;;;0.80;0.40;;;;;;;18.11;31.97;99088.28;6134965;23;20329;-75
2021/12/10 12:52:55;;;;;;;1.10;0.40;;;;;;;17.28;32.01;99108.53;6136954;23;20013;-77
2021/12/10 12:55:33;;;;;;;0.93;0.35;;;;;;;16.05;34.90;99099.78;6141665;23;20006;-78
2021/12/10 12:58:20;;;;;;;4.30;0.22;;;;;;;14.98;36.56;99110.75;6160575;23;20002;-76
2021/12/10 13:01:13;;;;;;;2.97;0.85;;;;;;;13.89;38.80;99109.78;6165416;23;20001;-76
2021/12/10 13:04:00;;;;;;;1.40;0.40;;;;;;;13.08;40.24;99115.28;6135239;23;20294;-80
2021/12/10 13:06:29;;;;;;;5.50;0.68;;;;;;;12.30;42.47;99112.78;6136917;23;20041;-77
2021/12/10 13:09:10;;;;;;;4.93;0.60;;;;;;;11.84;43.66;99111.03;6154750;23;20091;-77
2021/12/10 13:12:17;;;;;;;2.95;0.25;;;;;;;11.31;45.29;99107.69;6190290;23;20460;-79
2021/12/10 13:14:56;;;;;;;2.38;0.73;;;;;;;10.84;46.19;99106.91;6170028;23;20008;-79
2021/12/10 13:17:32;;;;;;;4.03;1.00;;;;;;;10.72;47.99;99125.72;6164175;23;20005;-80
2021/12/10 13:20:12;;;;;;;0.60;0.30;;;;;;;10.52;48.14;99124.94;6168823;23;20013;-77
2021/12/10 13:22:40;;;;;;;2.22;0.63;;;;;;;10.23;49.39;99125.06;6171720;23;20012;-78
2021/12/10 13:25:21;;;;;;;;;;;;;;;;;;;;;
2021/12/10 13:27:49;;;;;;;1.83;0.45;;;;;;;9.81;50.43;99122.06;6197348;23;20039;-79
2021/12/10 13:30:26;;;;;;;1.85;0.45;;;;;;;9.89;50.54;99140.53;6164387;23;20064;-79
2021/12/10 13:32:56;;;;;;;0.57;0.30;;;;;;;9.90;50.80;99152.28;6189914;23;20008;-79
2021/12/10 13:35:28;;;;;;;3.78;0.73;;;;;;;9.89;50.76;99137.00;6162468;23;20420;-79
2021/12/10 13:38:01;;;;;;;3.15;0.50;;;;;;;9.94;50.67;99131.47;6161945;23;20001;-79
2021/12/10 13:41:01;;;;;;;;;;;;;;;;;;;;;
2021/12/10 13:43:30;;;;;;;3.17;0.50;;;;;;;9.94;51.11;99129.56;6179435;23;20081;-79
2021/12/10 13:46:08;;;;;;;2.80;0.20;;;;;;;10.27;50.57;99137.84;6163822;23;20005;-79
2021/12/10 13:49:06;;;;;;;;;;;;;;;;;;;;;
2021/12/10 13:51:34;;;;;;;7.38;0.85;;;;;;;12.08;47.67;99164.81;6186017;23;20052;-79
2021/12/10 13:54:03;;;;;;;1.52;0.47;;;;;;;13.27;43.25;99166.38;6163136;23;20005;-78
2021/12/10 13:56:29;;;;;;;1.65;0.40;;;;;;;14.20;42.44;99163.84;6183949;23;20005;-78
2021/12/10 13:59:02;;;;;;;1.05;0.40;;;;;;;15.05;40.91;99154.31;6162593;23;20005;-78
2021/12/10 14:01:51;;;;;;;0.55;0.38;;;;;;;16.04;38.03;99178.13;6162414;23;20038;-78
2021/12/10 14:04:19;;;;;;;1.10;0.70;;;;;;;16.37;37.11;99185.72;6200128;23;20033;-77
2021/12/10 14:06:47;;;;;;;0.73;0.40;;;;;;;16.41;36.50;99172.84;6176033;23;20016;-79
2021/12/10 14:09:25;;;;;;;1.10;0.68;;;;;;;16.43;36.46;99206.44;6182713;23;20013;-78
2021/12/10 14:12:36;;;;;;;1.05;0.30;;;;;;;15.65;36.60;99193.81;6139486;23;20072;-77
2021/12/10 14:15:16;;;;;;;1.45;0.50;;;;;;;15.40;38.92;99188.06;6133858;23;20005;-79
2021/12/10 14:17:58;;;;;;;1.13;0.40;;;;;;;16.19;38.20;99202.38;6133186;23;20002;-77
2021/12/10 14:20:35;;;;;;;2.13;0.75;;;;;;;16.82;35.80;99223.69;6157585;23;20006;-78
2021/12/10 14:23:13;;;;;;;0.60;0.45;;;;;;;16.52;35.38;99203.63;6134662;23;20076;-76
2021/12/10 14:25:55;;;;;;;2.63;0.80;;;;;;;14.97;36.96;99191.72;6133689;23;20013;-78
2021/12/10 14:28:38;;;;;;;4.28;0.65;;;;;;;13.64;39.99;99213.78;6132240;23;20773;-77
2021/12/10 14:31:11;;;;;;;2.05;0.70;;;;;;;12.78;42.10;99199.16;6134509;23;20009;-78
2021/12/10 14:33:40;;;;;;;2.15;0.52;;;;;;;12.39;43.97;99206.88;6133894;23;20501;-78
2021/12/10 14:36:22;;;;;;;2.05;0.60;;;;;;;13.08;43.39;99208.59;6135674;23;20007;-78
2021/12/10 14:39:04;;;;;;;1.67;0.77;;;;;;;14.11;41.99;99216.84;6135435;23;20006;-78
2021/12/10 14:41:33;;;;;;;0.77;0.57;;;;;;;15.07;39.62;99218.94;6134481;23;20013;-78
2021/12/10 14:44:32;;;;;;;1.77;0.60;;;;;;;15.86;37.88;99221.50;6135331;23;20009;-78
2021/12/10 14:47:16;;;;;;;1.23;0.55;;;;;;;16.27;36.86;99224.72;6124460;23;20119;-79
2021/12/10 14:50:02;;;;;;;2.30;0.40;;;;;;;16.30;36.40;99213.03;6128672;23;20004;-76
2021/12/10 14:52:38;;;;;;;4.82;0.50;;;;;;;16.34;35.71;99191.88;6126099;23;20001;-77
2021/12/10 14:55:27;;;;;;;4.00;0.47;;;;;;;16.57;35.78;99231.00;6156017;23;20005;-80
2021/12/10 14:57:55;;;;;;;0.93;0.35;;;;;;;16.50;35.84;99230.72;6162628;23;20005;-79
2021/12/10 15:00:40;;;;;;;2.47;0.50;;;;;;;15.86;35.61;99238.84;6154492;23;20060;-79
2021/12/10 15:03:31;;;;;;;0.93;0.50;;;;;;;14.69;37.47;99240.75;6133980;23;20005;-80
2021/12/10 15:06:12;;;;;;;6.95;0.63;;;;;;;13.59;39.34;99241.38;6138928;23;20001;-82
2021/12/10 15:08:49;;;;;;;1.17;0.40;;;;;;;12.67;41.36;99231.47;6151690;23;20025;-79
2021/12/10 15:11:51;;;;;;;1.10;0.50;;;;;;;12.34;43.21;99239.88;6194554;23;20004;-79
2021/12/10 15:14:43;;;;;;;;;;;;;;;;;;;;;
2021/12/10 15:17:45;;;;;;;;;;;;;;;;;;;;;
2021/12/10 15:20:39;;;;;;;2.03;0.25;;;;;;;11.40;44.21;99255.59;6192593;23;20067;-80
2021/12/10 15:23:15;;;;;;;;;;;;;;;;;;;;;
2021/12/10 15:25:43;;;;;;;4.53;0.82;;;;;;;9.92;48.02;99251.91;6196396;23;20040;-80
2021/12/10 15:28:19;;;;;;;2.13;0.50;;;;;;;9.51;49.38;99251.53;6169597;23;20013;-78
2021/12/10 15:30:57;;;;;;;;;;;;;;;;;;;;;
2021/12/10 15:33:25;;;;;;;0.93;0.40;;;;;;;8.81;51.55;99249.91;6194132;23;20044;-79
2021/12/10 15:36:00;;;;;;;0.55;0.30;;;;;;;8.67;51.80;99287.88;6174082;23;20009;-79
2021/12/10 15:38:37;;;;;;;2.78;0.40;;;;;;;8.28;52.99;99264.06;6170185;23;20001;-80
2021/12/10 15:41:41;;;;;;;0.47;0.32;;;;;;;8.11;53.67;99270.66;6196444;23;19997;-78
2021/12/10 15:44:15;;;;;;;2.30;0.55;;;;;;;7.99;54.01;99294.69;6192113;23;20009;-79
2021/12/10 15:47:15;;;;;;;;;;;;;;;;;;;;;
2021/12/10 15:49:51;;;;;;;2.88;0.77;;;;;;;7.64;54.99;99293.66;6197776;23;20012;-79
2021/12/10 15:52:49;;;;;;;;;;;;;;;;;;;;;
2021/12/10 15:58:33;;;;;;;1.55;0.73;;;;;;;7.36;56.29;99346.69;6173753;23;20012;-81
2021/12/10 16:01:03;;;;;;;1.00;0.55;;;;;;;7.11;57.23;99324.66;6153821;23;20037;-79
2021/12/10 16:04:07;;;;;;;0.40;0.40;;;;;;;6.90;57.43;99320.28;6176467;23;20082;-79
2021/12/10 16:06:41;;;;;;;5.00;0.60;;;;;;;6.97;58.09;99361.59;6191500;23;20016;-78
2021/12/10 16:09:36;;;;;;;3.88;0.68;;;;;;;6.81;58.78;99363.47;6174930;23;20016;-80
2021/12/10 16:12:17;;;;;;;;;;;;;;;;;;;;;
2021/12/10 16:15:33;;;;;;;;;;;;;;;;;;;;;
2021/12/10 16:18:00;;;;;;;4.18;0.55;;;;;;;6.57;59.04;99353.06;6195064;23;20043;-77
2021/12/10 16:21:06;;;;;;;;;;;;;;;;;;;;;
2021/12/10 16:23:47;;;;;;;2.05;0.75;;;;;;;6.29;59.69;99336.09;6184003;23;20043;-79
2021/12/10 16:26:34;;;;;;;0.88;0.43;;;;;;;6.34;59.74;99361.63;6193383;23;20001;-78
2021/12/10 16:29:09;;;;;;;2.17;0.52;;;;;;;6.17;60.58;99342.81;6171657;23;20032;-80
2021/12/10 16:31:36;;;;;;;6.53;1.45;;;;;;;6.15;61.58;99347.69;6166838;23;20008;-77
2021/12/10 16:34:10;;;;;;;2.33;0.68;;;;;;;6.20;60.84;99380.28;6168776;23;20020;-81
2021/12/10 16:37:26;;;;;;;;;;;;;;;;;;;;;
2021/12/10 16:39:55;;;;;;;2.03;0.70;;;;;;;5.92;62.80;99387.69;6187889;23;20028;-78
2021/12/10 16:50:34;;;;;;;;;;;;;;;;;;;;;
2021/12/10 16:53:57;;;;;;;;;;;;;;;;;;;;;
2021/12/10 16:59:44;;;;;;;3.50;0.52;;;;;;;5.56;64.28;99414.50;6188812;23;20061;-79
2021/12/10 17:02:14;;;;;;;2.72;0.50;;;;;;;5.52;64.46;99419.66;6173525;23;20013;-78
2021/12/10 17:04:46;;;;;;;1.52;0.50;;;;;;;5.41;63.69;99407.88;6205986;23;20008;-80
2021/12/10 17:07:19;;;;;;;1.33;0.90;;;;;;;5.52;63.93;99441.34;6175825;23;20016;-78
2021/12/10 17:09:50;;;;;;;7.88;0.82;;;;;;;5.33;65.17;99424.63;6175548;23;20031;-80
2021/12/10 17:12:40;;;;;;;;;;;;;;;;;;;;;
2021/12/10 17:15:24;;;;;;;;;;;;;;;;;;;;;
2021/12/10 17:18:08;;;;;;;3.85;1.20;;;;;;;5.34;64.91;99439.78;6202877;23;20351;-77
2021/12/10 17:20:50;;;;;;;4.70;0.70;;;;;;;5.29;65.24;99453.31;6196530;23;20002;-76
2021/12/10 17:23:34;;;;;;;;;;;;;;;;;;;;;
2021/12/10 17:26:32;;;;;;;;;;;;;;;;;;;;;
2021/12/10 17:29:25;;;;;;;;;;;;;;;;;;;;;
2021/12/10 17:32:08;;;;;;;2.83;0.70;;;;;;;5.07;65.25;99475.03;6204026;23;20009;-77
2021/12/10 17:38:24;;;;;;;3.33;0.95;;;;;;;4.83;64.49;99471.72;6077570;23;20074;-77
2021/12/10 17:41:01;;;;;;;3.30;0.70;;;;;;;4.78;64.81;99490.66;6071056;23;20025;-76
2021/12/10 17:43:42;;;;;;;;;;;;;;;;;;;;;
2021/12/10 17:56:05;;;;;;;;;;;;;;;;;;;;;
2021/12/10 17:58:34;;;;;;;2.00;0.93;;;;;;;4.76;66.14;99539.66;6223366;23;20035;-76
2021/12/10 18:01:01;;;;;;;11.52;1.30;;;;;;;4.52;66.40;99506.53;6199156;23;20009;-75
2021/12/10 18:03:37;;;;;;;4.18;0.80;;;;;;;4.72;66.07;99552.84;6196306;23;20012;-78
2021/12/10 18:06:20;;;;;;;2.40;0.60;;;;;;;4.61;65.98;99534.81;6201965;23;20028;-78
2021/12/10 18:08:47;;;;;;;4.22;0.90;;;;;;;4.60;66.80;99548.59;6179548;23;20005;-80
2021/12/10 18:11:16;;;;;;;1.95;0.77;;;;;;;4.60;66.47;99552.16;6202500;23;20693;-77
2021/12/10 18:13:48;;;;;;;3.63;1.00;;;;;;;4.47;66.25;99538.94;6227624;23;20004;-77
2021/12/10 18:16:26;;;;;;;7.28;1.20;;;;;;;4.44;66.83;99558.38;6200316;23;19996;-78
2021/12/10 18:19:01;;;;;;;9.02;1.17;;;;;;;4.37;68.26;99550.44;6201820;23;20009;-77
2021/12/10 18:21:59;;;;;;;9.63;1.38;;;;;;;4.42;67.90;99557.81;6228890;23;20001;-77
2021/12/10 18:24:33;;;;;;;6.68;1.42;;;;;;;4.34;67.73;99550.94;6223688;23;20012;-77
2021/12/10 18:27:04;;;;;;;1.80;1.15;;;;;;;4.41;68.60;99569.69;6207841;23;20020;-78
2021/12/10 18:29:45;;;;;;;9.35;1.60;;;;;;;4.44;68.26;99577.31;6235953;23;20008;-77
2021/12/10 18:32:18;;;;;;;4.13;2.63;;;;;;;4.25;67.67;99550.53;6210502;23;20027;-76
2021/12/10 18:34:55;;;;;;;3.33;1.13;;;;;;;4.40;67.47;99570.78;6212315;23;20094;-76
2021/12/10 18:37:30;;;;;;;3.65;1.40;;;;;;;4.38;68.30;99568.31;6205457;23;20001;-77
2021/12/10 18:40:00;;;;;;;3.65;1.40;;;;;;;4.50;67.97;99582.59;6230861;23;20000;-77
2021/12/10 18:42:34;;;;;;;4.28;0.95;;;;;;;4.47;67.60;99593.09;6201736;23;20008;-78